sensor_id;sensor_type;location;lat;lon;timestamp;P1;durP1;ratioP1;P2;durP2;ratioP2
7497;SDS011;3790;48.806;9.140;2022-09-03T00:00:44;1.85;;;0.80;;
7497;SDS011;3790;48.806;9.140;2022-09-03T00:06:04;1.83;;;0.57;;
7497;SDS011;3790;48.806;9.140;2022-09-03T00:11:19;2.00;;;0.85;;
7497;SDS011;3790;48.806;9.140;2022-09-03T00:16:25;0.70;;;0.50;;
7497;SDS011;3790;48.806;9.140;2022-09-03T00:27:10;0.77;;;0.57;;
7497;SDS011;3790;48.806;9.140;2022-09-03T00:37:46;1.40;;;0.70;;
7497;SDS011;3790;48.806;9.140;2022-09-03T00:43:03;0.80;;;0.52;;
7497;SDS011;3790;48.806;9.140;2022-09-03T00:48:21;1.65;;;0.70;;
7497;SDS011;3790;48.806;9.140;2022-09-03T00:59:01;1.15;;;0.50;;
7497;SDS011;3790;48.806;9.140;2022-09-03T01:04:23;1.05;;;0.63;;
7497;SDS011;3790;48.806;9.140;2022-09-03T01:14:43;1.45;;;0.70;;
7497;SDS011;3790;48.806;9.140;2022-09-03T01:25:36;1.13;;;0.70;;
7497;SDS011;3790;48.806;9.140;2022-09-03T01:31:00;0.73;;;0.55;;
7497;SDS011;3790;48.806;9.140;2022-09-03T01:36:22;1.05;;;0.65;;
7497;SDS011;3790;48.806;9.140;2022-09-03T01:47:54;0.75;;;0.45;;
7497;SDS011;3790;48.806;9.140;2022-09-03T01:58:16;0.90;;;0.47;;
7497;SDS011;3790;48.806;9.140;2022-09-03T02:03:37;1.63;;;0.73;;
7497;SDS011;3790;48.806;9.140;2022-09-03T02:08:39;2.80;;;0.77;;
7497;SDS011;3790;48.806;9.140;2022-09-03T02:13:41;1.08;;;0.63;;
7497;SDS011;3790;48.806;9.140;2022-09-03T02:18:55;0.82;;;0.50;;
7497;SDS011;3790;48.806;9.140;2022-09-03T02:23:58;1.13;;;0.60;;
7497;SDS011;3790;48.806;9.140;2022-09-03T02:29:00;1.00;;;0.63;;
7497;SDS011;3790;48.806;9.140;2022-09-03T02:34:01;1.75;;;0.60;;
7497;SDS011;3790;48.806;9.140;2022-09-03T02:39:02;1.15;;;0.60;;
7497;SDS011;3790;48.806;9.140;2022-09-03T02:49:23;1.58;;;0.65;;
7497;SDS011;3790;48.806;9.140;2022-09-03T02:54:23;1.40;;;0.52;;
7497;SDS011;3790;48.806;9.140;2022-09-03T02:59:24;1.20;;;0.60;;
7497;SDS011;3790;48.806;9.140;2022-09-03T03:04:28;1.15;;;0.57;;
7497;SDS011;3790;48.806;9.140;2022-09-03T03:09:29;1.08;;;0.70;;
7497;SDS011;3790;48.806;9.140;2022-09-03T03:14:30;0.70;;;0.47;;
7497;SDS011;3790;48.806;9.140;2022-09-03T03:19:30;1.25;;;0.50;;
7497;SDS011;3790;48.806;9.140;2022-09-03T03:24:31;0.85;;;0.55;;
7497;SDS011;3790;48.806;9.140;2022-09-03T03:29:31;0.63;;;0.40;;
7497;SDS011;3790;48.806;9.140;2022-09-03T03:34:32;1.02;;;0.60;;
7497;SDS011;3790;48.806;9.140;2022-09-03T03:39:33;2.33;;;0.70;;
7497;SDS011;3790;48.806;9.140;2022-09-03T03:44:33;0.77;;;0.50;;
7497;SDS011;3790;48.806;9.140;2022-09-03T03:49:34;1.92;;;0.60;;
7497;SDS011;3790;48.806;9.140;2022-09-03T03:54:34;0.60;;;0.50;;
7497;SDS011;3790;48.806;9.140;2022-09-03T03:59:35;1.15;;;0.63;;
7497;SDS011;3790;48.806;9.140;2022-09-03T04:10:32;0.70;;;0.52;;
7497;SDS011;3790;48.806;9.140;2022-09-03T04:15:33;0.80;;;0.50;;
7497;SDS011;3790;48.806;9.140;2022-09-03T04:20:36;1.15;;;0.60;;
7497;SDS011;3790;48.806;9.140;2022-09-03T04:25:37;1.38;;;0.80;;
7497;SDS011;3790;48.806;9.140;2022-09-03T04:30:39;1.65;;;0.77;;
7497;SDS011;3790;48.806;9.140;2022-09-03T04:35:40;1.17;;;0.70;;
7497;SDS011;3790;48.806;9.140;2022-09-03T04:40:40;2.20;;;0.88;;
7497;SDS011;3790;48.806;9.140;2022-09-03T04:45:41;1.40;;;0.77;;
7497;SDS011;3790;48.806;9.140;2022-09-03T04:50:42;1.40;;;0.63;;
7497;SDS011;3790;48.806;9.140;2022-09-03T04:55:42;2.63;;;0.98;;
7497;SDS011;3790;48.806;9.140;2022-09-03T05:00:42;1.33;;;0.82;;
7497;SDS011;3790;48.806;9.140;2022-09-03T05:05:50;1.48;;;0.90;;
7497;SDS011;3790;48.806;9.140;2022-09-03T05:10:58;1.02;;;0.65;;
7497;SDS011;3790;48.806;9.140;2022-09-03T05:16:00;0.85;;;0.70;;
7497;SDS011;3790;48.806;9.140;2022-09-03T05:21:06;1.00;;;0.70;;
7497;SDS011;3790;48.806;9.140;2022-09-03T05:26:09;1.75;;;0.90;;
7497;SDS011;3790;48.806;9.140;2022-09-03T05:31:16;1.00;;;0.65;;
7497;SDS011;3790;48.806;9.140;2022-09-03T05:36:18;1.20;;;0.90;;
7497;SDS011;3790;48.806;9.140;2022-09-03T05:41:24;1.10;;;0.77;;
7497;SDS011;3790;48.806;9.140;2022-09-03T05:46:27;1.27;;;0.80;;
7497;SDS011;3790;48.806;9.140;2022-09-03T05:51:32;1.27;;;0.73;;
7497;SDS011;3790;48.806;9.140;2022-09-03T05:56:35;1.40;;;0.90;;
7497;SDS011;3790;48.806;9.140;2022-09-03T06:01:40;1.27;;;0.80;;
7497;SDS011;3790;48.806;9.140;2022-09-03T06:06:43;1.13;;;0.70;;
7497;SDS011;3790;48.806;9.140;2022-09-03T06:11:45;1.30;;;0.80;;
7497;SDS011;3790;48.806;9.140;2022-09-03T06:16:48;1.00;;;0.77;;
7497;SDS011;3790;48.806;9.140;2022-09-03T06:21:51;1.98;;;1.00;;
7497;SDS011;3790;48.806;9.140;2022-09-03T06:26:51;1.52;;;0.70;;
7497;SDS011;3790;48.806;9.140;2022-09-03T06:31:52;1.63;;;0.90;;
7497;SDS011;3790;48.806;9.140;2022-09-03T06:36:53;1.75;;;0.90;;
7497;SDS011;3790;48.806;9.140;2022-09-03T06:41:53;1.05;;;0.80;;
7497;SDS011;3790;48.806;9.140;2022-09-03T06:46:54;0.82;;;0.63;;
7497;SDS011;3790;48.806;9.140;2022-09-03T06:51:54;1.23;;;0.82;;
7497;SDS011;3790;48.806;9.140;2022-09-03T06:56:54;1.63;;;0.80;;
7497;SDS011;3790;48.806;9.140;2022-09-03T07:01:55;1.85;;;0.80;;
7497;SDS011;3790;48.806;9.140;2022-09-03T07:06:57;1.40;;;0.82;;
7497;SDS011;3790;48.806;9.140;2022-09-03T07:11:58;4.65;;;1.00;;
7497;SDS011;3790;48.806;9.140;2022-09-03T07:16:58;1.67;;;1.02;;
7497;SDS011;3790;48.806;9.140;2022-09-03T07:21:59;1.90;;;1.20;;
7497;SDS011;3790;48.806;9.140;2022-09-03T07:27:00;5.82;;;1.05;;
7497;SDS011;3790;48.806;9.140;2022-09-03T07:32:01;2.75;;;1.40;;
7497;SDS011;3790;48.806;9.140;2022-09-03T07:37:01;3.30;;;1.10;;
7497;SDS011;3790;48.806;9.140;2022-09-03T07:42:04;2.40;;;1.40;;
7497;SDS011;3790;48.806;9.140;2022-09-03T07:47:07;2.30;;;1.15;;
7497;SDS011;3790;48.806;9.140;2022-09-03T07:52:08;1.73;;;1.00;;
7497;SDS011;3790;48.806;9.140;2022-09-03T07:57:09;2.15;;;1.15;;
7497;SDS011;3790;48.806;9.140;2022-09-03T08:02:09;2.97;;;1.17;;
7497;SDS011;3790;48.806;9.140;2022-09-03T08:07:10;1.67;;;1.15;;
7497;SDS011;3790;48.806;9.140;2022-09-03T08:12:10;1.90;;;1.05;;
7497;SDS011;3790;48.806;9.140;2022-09-03T08:17:11;2.22;;;1.20;;
7497;SDS011;3790;48.806;9.140;2022-09-03T08:22:12;2.15;;;1.00;;
7497;SDS011;3790;48.806;9.140;2022-09-03T08:27:12;3.15;;;1.17;;
7497;SDS011;3790;48.806;9.140;2022-09-03T08:32:13;2.20;;;1.25;;
7497;SDS011;3790;48.806;9.140;2022-09-03T08:37:13;1.55;;;1.10;;
7497;SDS011;3790;48.806;9.140;2022-09-03T08:42:20;3.03;;;1.27;;
7497;SDS011;3790;48.806;9.140;2022-09-03T08:47:47;2.38;;;1.42;;
7497;SDS011;3790;48.806;9.140;2022-09-03T08:58:08;2.70;;;1.55;;
7497;SDS011;3790;48.806;9.140;2022-09-03T09:03:28;1.75;;;1.10;;
7497;SDS011;3790;48.806;9.140;2022-09-03T09:09:30;2.60;;;1.50;;
7497;SDS011;3790;48.806;9.140;2022-09-03T09:15:02;2.50;;;1.38;;
7497;SDS011;3790;48.806;9.140;2022-09-03T09:20:25;2.00;;;1.23;;
7497;SDS011;3790;48.806;9.140;2022-09-03T09:25:47;5.15;;;1.45;;
7497;SDS011;3790;48.806;9.140;2022-09-03T09:30:50;1.95;;;1.40;;
7497;SDS011;3790;48.806;9.140;2022-09-03T09:35:53;2.83;;;1.52;;
7497;SDS011;3790;48.806;9.140;2022-09-03T09:40:53;2.42;;;1.40;;
7497;SDS011;3790;48.806;9.140;2022-09-03T09:45:56;1.83;;;1.20;;
7497;SDS011;3790;48.806;9.140;2022-09-03T09:51:12;3.22;;;1.25;;
7497;SDS011;3790;48.806;9.140;2022-09-03T09:56:24;1.75;;;1.15;;
7497;SDS011;3790;48.806;9.140;2022-09-03T10:01:25;2.05;;;1.25;;
7497;SDS011;3790;48.806;9.140;2022-09-03T10:06:29;2.08;;;1.23;;
7497;SDS011;3790;48.806;9.140;2022-09-03T10:11:50;3.03;;;1.50;;
7497;SDS011;3790;48.806;9.140;2022-09-03T10:22:38;3.42;;;1.48;;
7497;SDS011;3790;48.806;9.140;2022-09-03T10:27:43;2.55;;;1.58;;
7497;SDS011;3790;48.806;9.140;2022-09-03T10:38:09;2.08;;;1.25;;
7497;SDS011;3790;48.806;9.140;2022-09-03T10:43:23;1.83;;;1.13;;
7497;SDS011;3790;48.806;9.140;2022-09-03T10:54:35;1.73;;;1.20;;
7497;SDS011;3790;48.806;9.140;2022-09-03T11:15:27;12.95;;;2.42;;
7497;SDS011;3790;48.806;9.140;2022-09-03T11:20:33;1.83;;;1.13;;
7497;SDS011;3790;48.806;9.140;2022-09-03T11:25:35;2.28;;;1.60;;
7497;SDS011;3790;48.806;9.140;2022-09-03T11:36:32;2.28;;;1.30;;
7497;SDS011;3790;48.806;9.140;2022-09-03T11:41:37;2.58;;;1.30;;
7497;SDS011;3790;48.806;9.140;2022-09-03T11:46:38;2.38;;;1.38;;
7497;SDS011;3790;48.806;9.140;2022-09-03T11:51:40;2.78;;;1.38;;
7497;SDS011;3790;48.806;9.140;2022-09-03T11:56:42;2.03;;;1.30;;
7497;SDS011;3790;48.806;9.140;2022-09-03T12:01:48;3.75;;;1.40;;
7497;SDS011;3790;48.806;9.140;2022-09-03T12:22:26;2.38;;;1.52;;
7497;SDS011;3790;48.806;9.140;2022-09-03T12:27:31;2.17;;;1.33;;
7497;SDS011;3790;48.806;9.140;2022-09-03T12:32:33;2.50;;;1.38;;
7497;SDS011;3790;48.806;9.140;2022-09-03T12:37:38;2.65;;;1.50;;
7497;SDS011;3790;48.806;9.140;2022-09-03T12:42:42;1.73;;;1.20;;
7497;SDS011;3790;48.806;9.140;2022-09-03T12:47:42;1.50;;;0.80;;
7497;SDS011;3790;48.806;9.140;2022-09-03T12:52:53;1.63;;;0.82;;
7497;SDS011;3790;48.806;9.140;2022-09-03T13:03:28;1.63;;;1.00;;
7497;SDS011;3790;48.806;9.140;2022-09-03T13:08:38;1.75;;;1.02;;
7497;SDS011;3790;48.806;9.140;2022-09-03T13:24:18;1.52;;;0.70;;
7497;SDS011;3790;48.806;9.140;2022-09-03T13:29:44;1.17;;;0.60;;
7497;SDS011;3790;48.806;9.140;2022-09-03T13:40:43;1.05;;;0.68;;
7497;SDS011;3790;48.806;9.140;2022-09-03T13:45:59;1.85;;;0.85;;
7497;SDS011;3790;48.806;9.140;2022-09-03T13:51:16;0.90;;;0.52;;
7497;SDS011;3790;48.806;9.140;2022-09-03T14:13:43;1.23;;;0.70;;
7497;SDS011;3790;48.806;9.140;2022-09-03T14:24:23;1.13;;;0.63;;
7497;SDS011;3790;48.806;9.140;2022-09-03T14:29:29;1.15;;;0.60;;
7497;SDS011;3790;48.806;9.140;2022-09-03T14:51:15;1.42;;;0.60;;
7497;SDS011;3790;48.806;9.140;2022-09-03T14:56:49;1.05;;;0.63;;
7497;SDS011;3790;48.806;9.140;2022-09-03T15:29:19;1.55;;;0.70;;
7497;SDS011;3790;48.806;9.140;2022-09-03T15:40:09;0.70;;;0.60;;
7497;SDS011;3790;48.806;9.140;2022-09-03T15:50:52;1.88;;;0.82;;
7497;SDS011;3790;48.806;9.140;2022-09-03T16:18:00;1.88;;;0.98;;
7497;SDS011;3790;48.806;9.140;2022-09-03T16:23:36;1.33;;;0.90;;
7497;SDS011;3790;48.806;9.140;2022-09-03T16:28:46;0.85;;;0.60;;
7497;SDS011;3790;48.806;9.140;2022-09-03T16:39:08;4.05;;;1.20;;
7497;SDS011;3790;48.806;9.140;2022-09-03T16:44:33;2.55;;;0.93;;
7497;SDS011;3790;48.806;9.140;2022-09-03T16:55:11;1.88;;;1.02;;
7497;SDS011;3790;48.806;9.140;2022-09-03T17:00:23;1.35;;;0.70;;
7497;SDS011;3790;48.806;9.140;2022-09-03T17:05:48;1.70;;;0.93;;
7497;SDS011;3790;48.806;9.140;2022-09-03T17:11:30;1.63;;;1.15;;
7497;SDS011;3790;48.806;9.140;2022-09-03T17:27:59;1.45;;;0.85;;
7497;SDS011;3790;48.806;9.140;2022-09-03T17:33:36;3.88;;;1.88;;
7497;SDS011;3790;48.806;9.140;2022-09-03T17:44:45;1.77;;;0.93;;
7497;SDS011;3790;48.806;9.140;2022-09-03T17:50:13;2.25;;;1.20;;
7497;SDS011;3790;48.806;9.140;2022-09-03T18:01:05;2.15;;;1.10;;
7497;SDS011;3790;48.806;9.140;2022-09-03T18:06:17;2.17;;;1.23;;
7497;SDS011;3790;48.806;9.140;2022-09-03T18:11:30;2.47;;;1.30;;
7497;SDS011;3790;48.806;9.140;2022-09-03T18:16:53;2.30;;;1.20;;
7497;SDS011;3790;48.806;9.140;2022-09-03T18:22:06;1.85;;;1.00;;
7497;SDS011;3790;48.806;9.140;2022-09-03T18:27:26;1.70;;;1.10;;
7497;SDS011;3790;48.806;9.140;2022-09-03T18:32:47;3.67;;;1.20;;
7497;SDS011;3790;48.806;9.140;2022-09-03T18:38:06;1.73;;;0.98;;
7497;SDS011;3790;48.806;9.140;2022-09-03T18:43:48;3.15;;;1.10;;
7497;SDS011;3790;48.806;9.140;2022-09-03T19:00:19;2.88;;;1.73;;
7497;SDS011;3790;48.806;9.140;2022-09-03T19:11:25;3.55;;;2.30;;
7497;SDS011;3790;48.806;9.140;2022-09-03T19:22:53;3.13;;;1.77;;
7497;SDS011;3790;48.806;9.140;2022-09-03T19:33:38;2.55;;;1.55;;
7497;SDS011;3790;48.806;9.140;2022-09-03T19:39:26;2.42;;;1.38;;
7497;SDS011;3790;48.806;9.140;2022-09-03T19:45:35;3.30;;;1.52;;
7497;SDS011;3790;48.806;9.140;2022-09-03T19:51:21;3.30;;;2.20;;
7497;SDS011;3790;48.806;9.140;2022-09-03T19:56:55;3.65;;;2.10;;
7497;SDS011;3790;48.806;9.140;2022-09-03T20:02:15;3.22;;;1.45;;
7497;SDS011;3790;48.806;9.140;2022-09-03T20:07:34;2.50;;;1.40;;
7497;SDS011;3790;48.806;9.140;2022-09-03T20:18:10;3.72;;;1.98;;
7497;SDS011;3790;48.806;9.140;2022-09-03T20:23:32;2.83;;;1.42;;
7497;SDS011;3790;48.806;9.140;2022-09-03T20:28:49;1.73;;;1.08;;
7497;SDS011;3790;48.806;9.140;2022-09-03T20:34:13;3.30;;;1.50;;
7497;SDS011;3790;48.806;9.140;2022-09-03T20:39:30;5.13;;;1.58;;
7497;SDS011;3790;48.806;9.140;2022-09-03T20:55:17;3.25;;;1.65;;
7497;SDS011;3790;48.806;9.140;2022-09-03T21:00:22;3.90;;;1.50;;
7497;SDS011;3790;48.806;9.140;2022-09-03T21:05:28;4.03;;;1.73;;
7497;SDS011;3790;48.806;9.140;2022-09-03T21:15:48;4.40;;;1.88;;
7497;SDS011;3790;48.806;9.140;2022-09-03T21:21:11;2.50;;;1.23;;
7497;SDS011;3790;48.806;9.140;2022-09-03T21:26:24;3.05;;;1.45;;
7497;SDS011;3790;48.806;9.140;2022-09-03T21:31:31;2.42;;;1.38;;
7497;SDS011;3790;48.806;9.140;2022-09-03T21:36:37;2.90;;;1.60;;
7497;SDS011;3790;48.806;9.140;2022-09-03T21:41:51;2.45;;;1.40;;
7497;SDS011;3790;48.806;9.140;2022-09-03T21:47:24;2.58;;;1.10;;
7497;SDS011;3790;48.806;9.140;2022-09-03T21:52:32;3.20;;;1.80;;
7497;SDS011;3790;48.806;9.140;2022-09-03T22:03:01;3.08;;;1.73;;
7497;SDS011;3790;48.806;9.140;2022-09-03T22:18:48;2.58;;;1.48;;
7497;SDS011;3790;48.806;9.140;2022-09-03T22:29:08;3.38;;;1.50;;
7497;SDS011;3790;48.806;9.140;2022-09-03T22:39:27;2.22;;;1.42;;
7497;SDS011;3790;48.806;9.140;2022-09-03T22:44:49;2.67;;;1.40;;
7497;SDS011;3790;48.806;9.140;2022-09-03T22:50:19;2.22;;;1.25;;
7497;SDS011;3790;48.806;9.140;2022-09-03T22:55:29;2.92;;;1.50;;
7497;SDS011;3790;48.806;9.140;2022-09-03T23:00:32;2.75;;;1.05;;
7497;SDS011;3790;48.806;9.140;2022-09-03T23:05:43;2.38;;;1.17;;
7497;SDS011;3790;48.806;9.140;2022-09-03T23:10:55;2.20;;;1.08;;
7497;SDS011;3790;48.806;9.140;2022-09-03T23:16:26;1.58;;;0.90;;
7497;SDS011;3790;48.806;9.140;2022-09-03T23:21:37;2.33;;;0.95;;
7497;SDS011;3790;48.806;9.140;2022-09-03T23:26:44;1.05;;;0.77;;
7497;SDS011;3790;48.806;9.140;2022-09-03T23:31:47;1.92;;;0.90;;
7497;SDS011;3790;48.806;9.140;2022-09-03T23:37:05;2.70;;;1.10;;
7497;SDS011;3790;48.806;9.140;2022-09-03T23:58:13;1.35;;;0.88;;
